Cumberland, MD

11:02 AM EST on December 10, 2016 (GMT -0500)
Mapleside | | Change Station

Elev 764 ft 39.64 °N, 78.75 °W | Updated 11 seconds ago

Mostly Cloudy
Mostly Cloudy
28.2 °F
Feels Like 28 °F
N
1.1
Wind Variable Wind from WNW
Gusts 2.5 mph

Today
High -- | Low -- °F
--% Chance of Precip.
Yesterday
High -- | Low -- °F
Precip. -- in
Pressure 30.43 in
Visibility 10.0 miles
Clouds Overcast 3700 ft
Windchill 28 °F
Dew Point 9 °F
Humidity 43%
Rainfall 0.00 in
Snow Depth Not available.
7:25 AM 4:50 PM
Waxing Gibbous, 84% visible
METAR KHMZ 101555Z AUTO 29011G18KT 10SM OVC037 M03/M10 A3043 RMK AO2 T10291101
Pressure 30.43 in
Visibility 10.0 miles
Clouds Overcast 3700 ft
Windchill 28 °F
Dew Point 9 °F
Humidity 43%
Rainfall 0.00 in
Snow Depth Not available.
7:25 AM 4:50 PM
Waxing Gibbous, 84% visible
METAR KHMZ 101555Z AUTO 29011G18KT 10SM OVC037 M03/M10 A3043 RMK AO2 T10291101

10-Day Weather Forecast

Almanac

Astronomy

Dec. 10, 2016 Rise Set
Actual Time
Civil Twilight
Nautical Twilight
Astronomical Twilight
Moon
Length of Visible Light
Length of Day
Tomorrow will be .
, % of the Moon is Illuminated

Today's Extremes

State Highs State Lows

Community

WunderPhotos

Upload Photos

1,956,569 photos uploaded!

WunderBlog® & News

Nearby

Air Quality

  Air Quality AQ Index Pollutant
Not available.

Snow Depth

Station Depth Elevation

Earthquake Activity

City Distance Mag. Time & Date
Minimum magnitude displayed is 2.5.

Coastal Water Temperatures

Place Temperature

Stations

Nearby Weather Stations

Station Location Temp. Windchill Dew Point Humidity Wind Precip. Elev Updated Type
                   

Watches & Warnings

There are currently no watches in effect.